Time;durP1;ratioP1;P1;durP2;ratioP2;P2;SDS_P1;SDS_P2;PMS_P1;PMS_P2;Temp;Humidity;BMP_temperature;BMP_pressure;BME280_temperature;BME280_humidity;BME280_pressure;Samples;Min_cycle;Max_cycle;Signal;HPM_P1;HPM_P2
2021/12/02 00:07:36;;;;;;;1.52;1.17;;;5.00;99.90;;;;;;3457157;23;20260;-91
2021/12/02 00:10:05;;;;;;;2.00;1.40;;;4.90;99.90;;;;;;4940019;29;20213;-92
2021/12/02 00:12:33;;;;;;;2.47;2.17;;;4.90;99.90;;;;;;4945442;29;20220;-91
2021/12/02 00:15:05;;;;;;;1.65;0.90;;;4.80;99.90;;;;;;4943138;29;20252;-92
2021/12/02 00:17:36;;;;;;;2.17;0.95;;;4.80;99.90;;;;;;4943728;29;20261;-92
2021/12/02 00:23:26;;;;;;;1.10;1.00;;;4.70;99.90;;;;;;4943698;29;20221;-92
2021/12/02 00:25:56;;;;;;;1.50;1.20;;;4.70;99.90;;;;;;4946468;29;20304;-93
2021/12/02 00:28:25;;;;;;;1.30;1.00;;;4.60;99.90;;;;;;4947439;29;20315;-92
2021/12/02 00:30:54;;;;;;;2.05;1.20;;;4.60;99.90;;;;;;4948852;29;20225;-93
2021/12/02 00:33:23;;;;;;;1.10;1.00;;;4.50;99.90;;;;;;4948447;29;20685;-94
2021/12/02 00:35:50;;;;;;;1.20;0.80;;;4.50;99.90;;;;;;4949094;29;20244;-93
2021/12/02 00:38:19;;;;;;;1.20;1.10;;;4.50;99.90;;;;;;4948403;29;20239;-93
2021/12/02 00:40:46;;;;;;;1.10;0.90;;;4.50;99.90;;;;;;4947471;29;20215;-92
2021/12/02 00:43:14;;;;;;;2.45;1.10;;;4.50;99.90;;;;;;4947060;29;20260;-93
2021/12/02 00:45:42;;;;;;;2.38;1.20;;;4.40;99.90;;;;;;4947113;29;20295;-93
2021/12/02 00:48:09;;;;;;;2.53;1.50;;;4.40;99.90;;;;;;4952897;29;20257;-93
2021/12/02 00:50:37;;;;;;;2.25;1.10;;;4.40;99.90;;;;;;4943279;29;20205;-92
2021/12/02 00:53:06;;;;;;;1.73;1.10;;;4.40;99.90;;;;;;4940842;29;20213;-92
2021/12/02 00:55:37;;;;;;;0.98;0.80;;;4.30;99.90;;;;;;4945003;29;20209;-93
2021/12/02 00:58:04;;;;;;;1.50;1.00;;;4.40;99.90;;;;;;4944826;29;20247;-92
2021/12/02 01:00:31;;;;;;;1.25;0.90;;;4.30;99.90;;;;;;4944914;29;20216;-93
2021/12/02 01:02:59;;;;;;;2.40;1.10;;;4.20;99.90;;;;;;4944922;29;20213;-92
2021/12/02 01:05:27;;;;;;;1.20;1.10;;;4.10;99.90;;;;;;4943415;29;20217;-92
2021/12/02 01:07:54;;;;;;;1.88;1.20;;;4.10;99.90;;;;;;4942030;29;20235;-92
2021/12/02 01:10:22;;;;;;;2.03;1.00;;;4.10;99.90;;;;;;4954319;29;20197;-92
2021/12/02 01:12:50;;;;;;;3.10;1.17;;;4.00;99.90;;;;;;4960096;28;20265;-94
2021/12/02 01:15:17;;;;;;;1.98;1.00;;;4.00;99.90;;;;;;4960563;28;20185;-94
2021/12/02 01:17:44;;;;;;;1.05;0.93;;;4.00;99.90;;;;;;4960204;28;20243;-93
2021/12/02 01:20:12;;;;;;;1.08;0.88;;;3.90;99.90;;;;;;4960158;28;20252;-93
2021/12/02 01:22:39;;;;;;;3.22;1.00;;;3.90;99.90;;;;;;4959285;28;20252;-93
2021/12/02 01:25:07;;;;;;;2.03;1.17;;;3.80;99.90;;;;;;4941226;29;20208;-92
2021/12/02 01:27:35;;;;;;;1.10;1.00;;;3.80;99.90;;;;;;4941800;29;20236;-92
2021/12/02 01:30:05;;;;;;;2.65;1.10;;;3.80;99.90;;;;;;4945051;29;20208;-92
2021/12/02 01:32:34;;;;;;;1.75;1.17;;;3.70;99.90;;;;;;4949708;29;20324;-91
2021/12/02 01:35:04;;;;;;;1.30;1.08;;;3.70;99.90;;;;;;4944643;29;20585;-93
2021/12/02 01:37:30;;;;;;;2.35;0.98;;;3.70;99.90;;;;;;4943205;29;20714;-93
2021/12/02 01:39:58;;;;;;;2.03;1.45;;;3.80;99.90;;;;;;4943865;29;20211;-92
2021/12/02 01:42:27;;;;;;;2.33;1.20;;;3.80;99.90;;;;;;4941996;29;20663;-92
2021/12/02 01:44:56;;;;;;;2.35;1.55;;;3.80;99.90;;;;;;4941261;29;20217;-92
2021/12/02 01:47:26;;;;;;;2.17;1.20;;;3.80;99.90;;;;;;4940238;29;20225;-92
2021/12/02 01:49:58;;;;;;;2.30;1.27;;;3.90;99.90;;;;;;4940308;29;20245;-92
2021/12/02 01:52:30;;;;;;;2.70;0.98;;;4.00;99.90;;;;;;4939615;29;20229;-93
2021/12/02 01:55:07;;;;;;;1.48;1.20;;;4.10;99.90;;;;;;4940022;29;20202;-91
2021/12/02 01:57:37;;;;;;;3.92;1.52;;;4.10;99.90;;;;;;4939896;29;20231;-92
2021/12/02 02:00:11;;;;;;;2.85;1.30;;;4.20;99.90;;;;;;4940146;29;20589;-92
2021/12/02 02:02:40;;;;;;;1.08;0.98;;;4.20;99.90;;;;;;4938577;29;20204;-92
2021/12/02 02:05:12;;;;;;;2.40;1.40;;;4.30;99.90;;;;;;4939199;29;20217;-92
2021/12/02 02:07:44;;;;;;;1.10;1.00;;;4.20;99.90;;;;;;4937859;29;20243;-92
2021/12/02 02:10:11;;;;;;;2.25;1.35;;;4.20;99.90;;;;;;4938127;29;20206;-91
2021/12/02 02:12:38;;;;;;;1.40;1.30;;;4.20;99.90;;;;;;4937797;29;20229;-92
2021/12/02 02:15:06;;;;;;;7.32;1.20;;;4.20;99.90;;;;;;4937343;29;20300;-91
2021/12/02 02:17:38;;;;;;;1.50;1.20;;;4.10;99.90;;;;;;4938168;29;20262;-92
2021/12/02 02:20:11;;;;;;;1.00;0.90;;;4.10;99.90;;;;;;4938187;29;20272;-92
2021/12/02 02:22:40;;;;;;;1.65;1.10;;;4.00;99.90;;;;;;4937919;29;20205;-92
2021/12/02 02:25:12;;;;;;;1.13;0.90;;;4.00;99.90;;;;;;4936628;29;20212;-93
2021/12/02 02:27:38;;;;;;;1.40;1.00;;;3.90;99.90;;;;;;4936581;29;20225;-93
2021/12/02 02:30:09;;;;;;;1.50;1.20;;;3.90;99.90;;;;;;4936616;29;20213;-93
2021/12/02 02:32:37;;;;;;;1.30;1.10;;;3.90;99.90;;;;;;4936168;29;20229;-91
2021/12/02 02:35:05;;;;;;;2.60;1.00;;;3.90;99.90;;;;;;4937523;29;20205;-91
2021/12/02 02:37:34;;;;;;;1.73;1.38;;;3.90;99.90;;;;;;4938836;29;20221;-92
2021/12/02 02:40:05;;;;;;;1.10;1.00;;;3.90;99.90;;;;;;4939769;29;20216;-92
2021/12/02 02:42:32;;;;;;;1.73;1.00;;;3.80;99.90;;;;;;4939082;29;20223;-92
2021/12/02 02:45:01;;;;;;;1.55;1.23;;;3.70;99.90;;;;;;4939359;29;20715;-92
2021/12/02 02:47:28;;;;;;;2.15;1.10;;;3.70;99.90;;;;;;4939106;29;20229;-92
2021/12/02 02:49:55;;;;;;;1.13;1.02;;;3.60;99.90;;;;;;4939381;29;20216;-92
2021/12/02 02:52:23;;;;;;;2.85;1.10;;;3.60;99.90;;;;;;4939005;29;20237;-92
2021/12/02 02:54:51;;;;;;;1.23;1.10;;;3.60;99.90;;;;;;4939270;29;20205;-92
2021/12/02 02:57:22;;;;;;;1.48;1.23;;;3.50;99.90;;;;;;4941742;29;20319;-92
2021/12/02 03:00:06;;;;;;;3.05;1.20;;;3.50;99.90;;;;;;4941753;29;20655;-92
2021/12/02 03:02:39;;;;;;;1.40;1.17;;;3.50;99.90;;;;;;4941257;29;20205;-92
2021/12/02 03:05:18;;;;;;;1.30;1.20;;;3.50;99.90;;;;;;4941106;29;20722;-92
2021/12/02 03:07:52;;;;;;;3.00;1.42;;;3.50;99.90;;;;;;4941556;29;20254;-93
2021/12/02 03:10:22;;;;;;;1.30;1.00;;;3.50;99.90;;;;;;4941238;29;20204;-93
2021/12/02 03:12:56;;;;;;;2.78;1.20;;;3.50;99.90;;;;;;4939709;29;20288;-94
2021/12/02 03:18:08;;;;;;;2.15;1.20;;;3.40;99.90;;;;;;4940487;29;20245;-93
2021/12/02 03:20:35;;;;;;;2.00;1.10;;;3.40;99.90;;;;;;4940714;29;20667;-94
2021/12/02 03:23:02;;;;;;;1.30;1.20;;;3.30;99.90;;;;;;4940490;29;20201;-92
2021/12/02 03:25:29;;;;;;;1.15;0.93;;;3.30;99.90;;;;;;4940353;29;20237;-91
2021/12/02 03:27:57;;;;;;;1.10;1.00;;;3.30;99.90;;;;;;4941122;29;20240;-93
2021/12/02 03:30:24;;;;;;;1.52;0.95;;;3.30;99.90;;;;;;4940920;29;20197;-92
2021/12/02 03:32:51;;;;;;;1.85;1.15;;;3.20;99.90;;;;;;4940640;29;20236;-92
2021/12/02 03:35:18;;;;;;;1.90;0.98;;;3.20;99.90;;;;;;4941032;29;20219;-92
2021/12/02 03:37:44;;;;;;;2.45;1.23;;;3.20;99.90;;;;;;4957973;28;20217;-92
2021/12/02 03:40:13;;;;;;;1.50;1.20;;;3.20;99.90;;;;;;4944715;29;20269;-91
2021/12/02 03:42:46;;;;;;;1.35;1.00;;;3.10;99.90;;;;;;4940106;29;20243;-91
2021/12/02 03:45:14;;;;;;;2.22;0.98;;;3.20;99.90;;;;;;4940205;29;20220;-91
2021/12/02 03:47:41;;;;;;;4.35;1.60;;;3.10;99.90;;;;;;4940331;29;20232;-92
2021/12/02 03:50:09;;;;;;;1.40;1.17;;;3.10;99.90;;;;;;4939678;29;20204;-92
2021/12/02 03:52:36;;;;;;;1.17;0.90;;;3.00;99.90;;;;;;4940554;29;20232;-92
2021/12/02 03:55:04;;;;;;;1.38;1.17;;;3.10;99.90;;;;;;4940618;29;20570;-92
2021/12/02 03:57:32;;;;;;;1.30;0.85;;;3.00;99.90;;;;;;4939692;29;20236;-92
2021/12/02 03:59:59;;;;;;;1.60;1.20;;;3.10;99.90;;;;;;4940338;29;20264;-92
2021/12/02 04:02:27;;;;;;;1.65;1.17;;;3.10;99.90;;;;;;4938776;29;20201;-92
2021/12/02 04:04:54;;;;;;;1.45;0.95;;;3.10;99.90;;;;;;4938764;29;20212;-91
2021/12/02 04:07:24;;;;;;;2.78;1.10;;;3.10;99.90;;;;;;4939420;29;20247;-91
2021/12/02 04:09:52;;;;;;;0.80;0.70;;;3.10;99.90;;;;;;4938636;29;20205;-90
2021/12/02 04:12:21;;;;;;;3.85;1.30;;;3.20;99.90;;;;;;4938253;29;20225;-91
2021/12/02 04:14:53;;;;;;;2.05;1.10;;;3.20;99.90;;;;;;4940667;29;20221;-92
2021/12/02 04:17:29;;;;;;;1.48;1.00;;;3.20;99.90;;;;;;4940981;29;20233;-92
2021/12/02 04:19:57;;;;;;;1.20;1.00;;;3.20;99.90;;;;;;4940569;29;20204;-92
2021/12/02 04:22:24;;;;;;;2.63;1.35;;;3.20;99.90;;;;;;4941311;29;20197;-92
2021/12/02 04:24:51;;;;;;;1.90;1.30;;;3.30;99.90;;;;;;4940430;29;20217;-92
2021/12/02 04:27:18;;;;;;;2.58;1.35;;;3.30;99.90;;;;;;4939794;29;20469;-92
2021/12/02 04:29:56;;;;;;;2.67;1.15;;;3.30;99.90;;;;;;4941631;29;20223;-91
2021/12/02 04:32:23;;;;;;;1.23;1.13;;;3.30;99.90;;;;;;4949945;29;20288;-91
2021/12/02 04:35:01;;;;;;;1.10;1.00;;;3.40;99.90;;;;;;4947211;29;20217;-90
2021/12/02 04:37:29;;;;;;;1.30;1.20;;;3.50;99.90;;;;;;4927890;28;20205;-90
2021/12/02 04:39:56;;;;;;;1.83;1.23;;;3.50;99.90;;;;;;4924655;29;20258;-94
2021/12/02 04:45:04;;;;;;;1.30;0.93;;;3.50;99.90;;;;;;4932436;28;20210;-92
2021/12/02 04:47:31;;;;;;;1.27;1.00;;;3.50;99.90;;;;;;4933772;28;20278;-91
2021/12/02 04:50:00;;;;;;;2.90;1.38;;;3.50;99.90;;;;;;4929494;29;20204;-93
2021/12/02 04:52:27;;;;;;;1.63;1.05;;;3.50;99.90;;;;;;4921581;29;20213;-92
2021/12/02 04:57:41;;;;;;;1.55;1.25;;;3.50;99.90;;;;;;5268396;23;20269;-92
2021/12/02 05:00:10;;;;;;;2.17;1.58;;;3.60;99.90;;;;;;4929648;28;20273;-92
2021/12/02 05:02:40;;;;;;;2.58;1.40;;;3.60;99.90;;;;;;4944962;29;20275;-93
2021/12/02 05:05:31;;;;;;;2.00;1.10;;;3.60;99.90;;;;;;4936665;29;20212;-93
2021/12/02 05:08:00;;;;;;;1.55;1.05;;;3.60;99.90;;;;;;4942701;29;20225;-92
2021/12/02 05:10:28;;;;;;;1.80;1.20;;;3.70;99.90;;;;;;4940312;29;20400;-92
2021/12/02 05:12:56;;;;;;;5.07;1.50;;;3.60;99.90;;;;;;4938525;29;20225;-92
2021/12/02 05:15:23;;;;;;;3.28;1.42;;;3.60;99.90;;;;;;4944616;28;20186;-92
2021/12/02 05:17:49;;;;;;;2.70;1.10;;;3.60;99.90;;;;;;4933756;29;20225;-92
2021/12/02 05:20:17;;;;;;;1.75;1.27;;;3.60;99.90;;;;;;4939076;29;20213;-91
2021/12/02 05:22:46;;;;;;;2.05;1.10;;;3.60;99.90;;;;;;4929925;29;20193;-91
2021/12/02 05:25:13;;;;;;;1.35;1.25;;;3.60;99.90;;;;;;4935973;29;20201;-91
2021/12/02 05:27:40;;;;;;;1.20;1.10;;;3.60;99.90;;;;;;4933839;29;20233;-91
2021/12/02 05:30:30;;;;;;;1.65;1.45;;;3.60;99.90;;;;;;4922118;29;20205;-91
2021/12/02 05:32:56;;;;;;;2.50;1.20;;;3.60;99.90;;;;;;4918115;29;20217;-91
2021/12/02 05:35:23;;;;;;;1.42;1.13;;;3.50;99.90;;;;;;4917710;29;20213;-91
2021/12/02 05:37:51;;;;;;;2.35;1.25;;;3.60;99.90;;;;;;4918160;29;20237;-91
2021/12/02 05:40:18;;;;;;;1.58;1.30;;;3.60;99.90;;;;;;4925009;29;20671;-91
2021/12/02 05:42:45;;;;;;;3.30;1.20;;;3.60;99.90;;;;;;4923243;29;20213;-91
2021/12/02 05:45:11;;;;;;;2.97;1.50;;;3.60;99.90;;;;;;4918686;29;20206;-92
2021/12/02 05:47:38;;;;;;;2.90;1.38;;;3.60;99.90;;;;;;4922672;29;20226;-92
2021/12/02 05:50:06;;;;;;;1.30;1.10;;;3.60;99.90;;;;;;4928574;29;20216;-91
2021/12/02 05:52:33;;;;;;;1.42;1.15;;;3.60;99.90;;;;;;4923541;29;20221;-92
2021/12/02 05:55:01;;;;;;;4.47;1.20;;;3.50;99.90;;;;;;4922724;29;20213;-92
2021/12/02 05:57:28;;;;;;;1.17;1.08;;;3.50;99.90;;;;;;4928224;29;20234;-93
2021/12/02 05:59:55;;;;;;;2.42;1.08;;;3.50;99.90;;;;;;4929004;29;20281;-92
2021/12/02 06:02:22;;;;;;;2.42;1.10;;;3.50;99.90;;;;;;4917504;29;20209;-92
2021/12/02 06:04:51;;;;;;;1.85;1.55;;;3.40;99.90;;;;;;4918951;29;20202;-93
2021/12/02 06:07:18;;;;;;;1.65;1.30;;;3.40;99.90;;;;;;4918276;29;20272;-92
2021/12/02 06:09:45;;;;;;;1.00;0.90;;;3.40;99.90;;;;;;4918671;29;20317;-93
2021/12/02 06:12:14;;;;;;;1.48;0.90;;;3.40;99.90;;;;;;4919929;29;20220;-92
2021/12/02 06:14:41;;;;;;;1.65;1.20;;;3.40;99.90;;;;;;4921652;29;20220;-93
2021/12/02 06:17:08;;;;;;;1.25;1.00;;;3.40;99.90;;;;;;4921195;29;20261;-92
2021/12/02 06:19:34;;;;;;;2.40;1.00;;;3.30;99.90;;;;;;4922772;29;20212;-92
2021/12/02 06:22:01;;;;;;;3.67;1.40;;;3.30;99.90;;;;;;4922301;29;20210;-92
2021/12/02 06:24:31;;;;;;;2.80;1.17;;;3.20;99.90;;;;;;4922713;29;20225;-92
2021/12/02 06:26:58;;;;;;;0.95;0.80;;;3.20;99.90;;;;;;4922409;29;20217;-93
2021/12/02 06:29:27;;;;;;;1.58;1.00;;;3.10;99.90;;;;;;4925480;29;20210;-94
2021/12/02 06:31:54;;;;;;;1.52;1.05;;;3.10;99.90;;;;;;4924388;29;20205;-92
2021/12/02 06:34:21;;;;;;;2.08;1.15;;;2.90;99.90;;;;;;4924361;29;20222;-93
2021/12/02 06:36:47;;;;;;;1.35;1.00;;;2.90;99.90;;;;;;4924631;29;20214;-91
2021/12/02 06:39:14;;;;;;;1.40;0.90;;;2.90;99.90;;;;;;4923289;29;20208;-92
2021/12/02 06:41:41;;;;;;;1.10;1.00;;;2.90;99.90;;;;;;4921954;29;20213;-91
2021/12/02 06:44:08;;;;;;;1.55;1.20;;;2.90;99.90;;;;;;4921593;29;20210;-92
2021/12/02 06:46:36;;;;;;;1.20;0.90;;;2.90;99.90;;;;;;4922554;29;20217;-92
2021/12/02 06:49:02;;;;;;;3.60;1.95;;;2.90;99.90;;;;;;4922469;29;20222;-92
2021/12/02 06:51:29;;;;;;;1.50;1.08;;;2.90;99.90;;;;;;4923596;29;20220;-91
2021/12/02 06:53:56;;;;;;;1.40;0.90;;;2.90;99.90;;;;;;4919651;29;20301;-92
2021/12/02 06:56:23;;;;;;;1.05;0.95;;;2.90;99.90;;;;;;4920137;29;20672;-92
2021/12/02 06:58:50;;;;;;;1.77;1.20;;;2.90;99.90;;;;;;4920219;29;20244;-92
2021/12/02 07:01:16;;;;;;;1.48;1.05;;;2.90;99.90;;;;;;4919583;29;20292;-91
2021/12/02 07:03:45;;;;;;;1.35;1.10;;;2.90;99.90;;;;;;4920554;29;20217;-92
2021/12/02 07:06:11;;;;;;;3.65;1.20;;;2.90;99.90;;;;;;4921318;29;20279;-91
2021/12/02 07:08:38;;;;;;;1.70;1.10;;;2.90;99.90;;;;;;4923304;29;20588;-92
2021/12/02 07:11:08;;;;;;;2.45;1.55;;;2.90;99.90;;;;;;4922280;29;20217;-91
2021/12/02 07:13:36;;;;;;;2.45;1.20;;;2.90;99.90;;;;;;4920605;29;20278;-91
2021/12/02 07:16:03;;;;;;;2.08;1.27;;;2.90;99.90;;;;;;4922403;29;20209;-91
2021/12/02 07:18:35;;;;;;;2.70;1.10;;;2.90;99.90;;;;;;5314001;23;20718;-93
2021/12/02 07:21:03;;;;;;;1.75;1.35;;;2.90;99.90;;;;;;4935885;29;20284;-90
2021/12/02 08:10:50;;;;;;;2.28;1.10;;;3.20;99.90;;;;;;1507267;23;21879;-92
2021/12/02 08:13:17;;;;;;;2.38;1.70;;;3.50;99.90;;;;;;4931361;29;20646;-92
2021/12/02 08:15:44;;;;;;;1.10;1.00;;;3.70;99.90;;;;;;4923549;29;20271;-93
2021/12/02 08:18:11;;;;;;;2.20;1.50;;;4.20;99.90;;;;;;4895415;29;20716;-91
2021/12/02 08:20:38;;;;;;;1.20;1.10;;;4.80;99.90;;;;;;4898872;29;20214;-92
2021/12/02 11:51:21;;;;;;;3.58;1.15;;;3.60;99.90;;;;;;4977151;28;20223;-91
2021/12/02 11:53:49;;;;;;;1.38;1.20;;;3.60;99.90;;;;;;4976955;23;20765;-94
2021/12/02 11:56:17;;;;;;;3.28;1.60;;;3.60;99.90;;;;;;4946502;29;20647;-94
2021/12/02 11:59:15;;;;;;;1.60;1.50;;;3.70;99.90;;;;;;4947596;29;20738;-93
2021/12/02 12:08:09;;;;;;;2.55;1.63;;;3.90;99.90;;;;;;4906696;29;20226;-94
2021/12/02 12:14:18;;;;;;;1.33;1.10;;;4.10;99.90;;;;;;4861750;29;20235;-95
2021/12/02 12:17:06;;;;;;;1.60;1.50;;;4.20;99.90;;;;;;4924903;29;20205;-93
2021/12/02 12:22:33;;;;;;;1.40;1.30;;;4.40;99.90;;;;;;4925114;29;20675;-93
2021/12/02 12:25:29;;;;;;;1.17;1.08;;;4.40;99.90;;;;;;4925379;29;20197;-94
2021/12/02 12:28:07;;;;;;;2.53;1.45;;;4.60;99.90;;;;;;4923006;29;20619;-94
2021/12/02 12:31:13;;;;;;;1.40;1.30;;;4.60;99.90;;;;;;4923434;29;20623;-96
2021/12/02 12:33:43;;;;;;;1.77;1.60;;;4.60;99.90;;;;;;4926943;29;20234;-95
2021/12/02 12:40:32;;;;;;;1.90;1.40;;;4.40;99.90;;;;;;4910536;29;20214;-93
2021/12/02 12:43:25;;;;;;;2.72;1.60;;;4.30;99.90;;;;;;4926577;29;20233;-95
2021/12/02 12:48:47;;;;;;;2.45;1.60;;;4.20;99.90;;;;;;4930253;29;20210;-94
2021/12/02 12:51:23;;;;;;;2.28;1.55;;;4.10;99.90;;;;;;4927674;29;20715;-95
2021/12/02 12:53:52;;;;;;;4.63;1.73;;;4.10;99.90;;;;;;4926867;29;20243;-93
2021/12/02 12:56:29;;;;;;;1.85;1.65;;;4.10;99.90;;;;;;4928558;29;20214;-94
2021/12/02 12:59:08;;;;;;;1.60;1.50;;;4.20;99.90;;;;;;4928739;29;20273;-94
2021/12/02 13:20:36;;;;;;;2.05;1.80;;;4.30;99.90;;;;;;4963800;28;20694;-93
2021/12/02 13:26:19;;;;;;;3.25;1.83;;;4.20;99.90;;;;;;4923174;29;20194;-95
2021/12/02 13:28:56;;;;;;;1.70;1.45;;;4.10;99.90;;;;;;4925962;29;20213;-94
2021/12/02 13:31:56;;;;;;;1.77;1.15;;;3.90;99.90;;;;;;4913398;29;20198;-94
2021/12/02 13:34:26;;;;;;;1.73;1.48;;;3.60;99.90;;;;;;4907637;29;20412;-93
2021/12/02 13:39:55;;;;;;;1.55;1.40;;;3.40;99.90;;;;;;5005915;23;20288;-93
2021/12/02 13:42:23;;;;;;;1.85;1.60;;;3.50;99.90;;;;;;5015613;23;20220;-94
2021/12/02 13:47:31;;;;;;;2.85;1.63;;;3.60;99.90;;;;;;5465263;23;20435;-94
2021/12/02 13:53:07;;;;;;;2.85;1.73;;;3.60;99.90;;;;;;5249266;23;20216;-92
2021/12/02 13:55:37;;;;;;;1.20;1.10;;;3.50;99.90;;;;;;4969125;28;20217;-93
2021/12/02 13:58:07;;;;;;;4.78;1.52;;;3.40;99.90;;;;;;4941649;29;20201;-91
2021/12/02 14:00:36;;;;;;;3.67;1.33;;;3.30;99.90;;;;;;4942776;29;20213;-93
2021/12/02 14:03:05;;;;;;;3.58;1.73;;;3.20;99.90;;;;;;4942507;29;20225;-93
2021/12/02 14:05:34;;;;;;;2.88;1.55;;;3.10;99.90;;;;;;4942231;29;20205;-93
2021/12/02 14:08:03;;;;;;;1.90;1.40;;;3.20;99.90;;;;;;4944593;29;20205;-94
2021/12/02 14:10:33;;;;;;;4.32;2.10;;;3.20;99.90;;;;;;4942487;29;20209;-93
2021/12/02 14:13:04;;;;;;;4.47;2.47;;;3.10;99.90;;;;;;4940905;29;20227;-93
2021/12/02 14:15:33;;;;;;;2.85;1.50;;;3.10;99.90;;;;;;4942585;29;20739;-94
2021/12/02 14:18:02;;;;;;;3.78;2.00;;;3.20;99.90;;;;;;4941965;29;20205;-95
2021/12/02 14:20:40;;;;;;;2.42;2.20;;;3.10;99.90;;;;;;4944072;29;20277;-94
2021/12/02 14:23:11;;;;;;;2.33;1.60;;;3.10;99.90;;;;;;4941200;29;20315;-94
2021/12/02 14:25:42;;;;;;;3.00;1.90;;;3.10;99.90;;;;;;4943314;29;20206;-94
2021/12/02 14:28:21;;;;;;;3.00;2.20;;;3.10;99.90;;;;;;4943917;29;20209;-93
2021/12/02 14:30:51;;;;;;;7.07;2.60;;;3.00;99.90;;;;;;4943863;29;20272;-96
2021/12/02 14:33:20;;;;;;;3.05;2.40;;;3.00;99.90;;;;;;4946830;29;20225;-94
2021/12/02 14:35:51;;;;;;;3.25;1.65;;;3.00;99.90;;;;;;4948888;29;20265;-93
2021/12/02 14:38:25;;;;;;;2.33;1.75;;;3.00;99.90;;;;;;4949365;29;20201;-94
2021/12/02 14:41:09;;;;;;;1.33;1.23;;;2.90;99.90;;;;;;4948663;29;20238;-92
2021/12/02 14:43:47;;;;;;;1.30;1.20;;;2.90;99.90;;;;;;4949442;29;20280;-93
2021/12/02 14:46:24;;;;;;;1.60;1.30;;;2.90;99.90;;;;;;4949745;29;20217;-92
2021/12/02 14:49:31;;;;;;;1.48;1.38;;;2.90;99.90;;;;;;4951039;29;20216;-92
2021/12/02 14:52:06;;;;;;;1.52;1.38;;;2.90;99.90;;;;;;4945802;29;20204;-93
2021/12/02 14:54:40;;;;;;;1.45;1.35;;;2.80;99.90;;;;;;4951791;29;20557;-94
2021/12/02 14:57:27;;;;;;;2.33;1.30;;;2.70;99.90;;;;;;4951843;29;20217;-93
2021/12/02 15:00:13;;;;;;;1.63;1.50;;;2.70;99.90;;;;;;4951192;29;20221;-93
2021/12/02 15:02:43;;;;;;;1.63;1.52;;;2.70;99.90;;;;;;4955081;29;20253;-94
2021/12/02 15:05:15;;;;;;;1.80;1.65;;;2.60;99.90;;;;;;4953081;29;20217;-95
2021/12/02 15:07:48;;;;;;;2.03;1.50;;;2.60;99.90;;;;;;4953052;29;20241;-94
2021/12/02 15:10:20;;;;;;;1.70;1.55;;;2.60;99.90;;;;;;4953405;29;20201;-94
2021/12/02 15:12:51;;;;;;;1.70;1.50;;;2.60;99.90;;;;;;4954669;29;20229;-94
2021/12/02 15:15:21;;;;;;;1.92;1.77;;;2.60;99.90;;;;;;4948331;29;20257;-95
2021/12/02 15:17:53;;;;;;;2.40;2.20;;;2.50;99.90;;;;;;4949034;29;20234;-95
2021/12/02 15:20:24;;;;;;;3.08;2.00;;;2.50;99.90;;;;;;4944817;29;20205;-93
2021/12/02 15:23:00;;;;;;;3.03;2.17;;;2.40;99.90;;;;;;4944046;29;20231;-92
2021/12/02 15:25:31;;;;;;;2.55;2.22;;;2.40;99.90;;;;;;4943013;29;20288;-93
2021/12/02 15:28:13;;;;;;;2.00;1.80;;;2.40;99.90;;;;;;4948960;29;20209;-94
2021/12/02 15:30:46;;;;;;;2.38;1.70;;;2.40;99.90;;;;;;4952959;29;20229;-92
2021/12/02 15:33:23;;;;;;;2.10;1.60;;;2.50;99.90;;;;;;4951749;29;20221;-94
2021/12/02 15:35:51;;;;;;;1.48;1.35;;;2.40;99.90;;;;;;4952021;29;20231;-93
2021/12/02 15:38:19;;;;;;;2.58;2.38;;;2.40;99.90;;;;;;4952963;29;20233;-94
2021/12/02 15:40:47;;;;;;;3.22;2.17;;;2.40;99.90;;;;;;4951290;29;20225;-93
2021/12/02 15:43:21;;;;;;;4.93;3.13;;;2.30;99.90;;;;;;4950806;29;20225;-94
2021/12/02 15:45:50;;;;;;;2.67;1.50;;;2.30;99.90;;;;;;4947003;29;20467;-92
2021/12/02 15:48:17;;;;;;;1.60;1.02;;;2.20;99.90;;;;;;4944700;29;20212;-93
2021/12/02 15:50:45;;;;;;;1.30;1.15;;;2.20;99.90;;;;;;4944901;29;20687;-93
2021/12/02 15:53:15;;;;;;;2.65;1.20;;;2.10;99.90;;;;;;4942924;29;20252;-91
2021/12/02 15:55:43;;;;;;;1.75;1.00;;;2.10;99.90;;;;;;4942000;29;20225;-91
2021/12/02 15:58:11;;;;;;;2.05;1.20;;;2.00;99.90;;;;;;4942150;29;20236;-93
2021/12/02 16:00:45;;;;;;;1.90;1.35;;;1.90;99.90;;;;;;4944002;28;20205;-92
2021/12/02 16:03:18;;;;;;;2.97;1.75;;;1.90;99.90;;;;;;4941215;29;20232;-91
2021/12/02 16:05:59;;;;;;;4.43;1.60;;;1.80;99.90;;;;;;4939912;29;20264;-91
2021/12/02 16:08:31;;;;;;;2.08;1.20;;;1.90;99.90;;;;;;4943521;29;20726;-92
2021/12/02 16:13:53;;;;;;;1.35;1.25;;;1.90;99.90;;;;;;4917240;29;20220;-90
2021/12/02 16:17:35;;;;;;;;;;;;;;;;;;;;;
2021/12/02 16:20:03;;;;;;;6.32;1.80;;;1.80;99.90;;;;;;4940146;29;20225;-91
2021/12/02 16:22:30;;;;;;;4.57;2.42;;;1.70;99.90;;;;;;4943075;29;20872;-93
2021/12/02 16:24:58;;;;;;;5.82;2.47;;;1.70;99.90;;;;;;4940272;29;20201;-92
2021/12/02 16:27:26;;;;;;;3.50;2.20;;;1.70;99.90;;;;;;4943210;29;20193;-92
2021/12/02 16:29:56;;;;;;;2.55;1.67;;;1.80;99.90;;;;;;4943080;29;20225;-92
2021/12/02 16:32:26;;;;;;;2.72;2.20;;;1.80;99.90;;;;;;4942145;29;20236;-92
2021/12/02 16:34:53;;;;;;;2.40;2.15;;;1.80;99.90;;;;;;4940302;29;20224;-93
2021/12/02 16:37:20;;;;;;;2.70;2.28;;;1.80;99.90;;;;;;4942211;29;20201;-93
2021/12/02 16:40:09;;;;;;;2.92;1.65;;;1.80;99.90;;;;;;4950253;28;20201;-93
2021/12/02 16:42:39;;;;;;;1.80;1.70;;;1.80;99.90;;;;;;4943070;29;20201;-93
2021/12/02 16:45:07;;;;;;;5.32;1.85;;;1.80;99.90;;;;;;4944011;29;20208;-93
2021/12/02 16:47:36;;;;;;;3.60;2.35;;;1.80;99.90;;;;;;4948462;29;20213;-93
2021/12/02 16:50:04;;;;;;;4.22;3.10;;;1.80;99.90;;;;;;4961211;29;20579;-94
2021/12/02 17:00:49;;;;;;;3.42;3.13;;;1.70;99.90;;;;;;5390431;23;20259;-92
2021/12/02 17:06:47;;;;;;;3.47;1.63;;;1.60;99.90;;;;;;4959636;28;20264;-94
2021/12/02 17:11:59;;;;;;;4.70;1.50;;;1.60;99.90;;;;;;5256721;23;20261;-94
2021/12/02 17:14:37;;;;;;;2.15;1.75;;;1.50;99.90;;;;;;4944024;28;20562;-93
2021/12/02 17:32:36;;;;;;;4.80;1.60;;;1.50;99.90;;;;;;4935039;29;20209;-93
2021/12/02 17:35:05;;;;;;;3.28;1.70;;;1.50;99.90;;;;;;4939021;28;20289;-93
2021/12/02 17:37:35;;;;;;;3.15;1.77;;;1.50;99.90;;;;;;4939463;28;20274;-93
2021/12/02 17:40:04;;;;;;;3.20;2.00;;;1.50;99.90;;;;;;4939724;28;20189;-92
2021/12/02 17:42:32;;;;;;;4.05;2.42;;;1.60;99.90;;;;;;4939790;28;20186;-94
2021/12/02 17:45:00;;;;;;;2.20;2.00;;;1.50;99.90;;;;;;4927758;28;20214;-93
2021/12/02 17:51:00;;;;;;;2.70;2.20;;;1.60;99.90;;;;;;4967200;23;20301;-95
2021/12/02 17:53:32;;;;;;;5.13;2.50;;;1.60;99.90;;;;;;5085181;23;20237;-94
2021/12/02 17:55:59;;;;;;;4.35;2.13;;;1.60;99.90;;;;;;4958667;28;20241;-94
2021/12/02 17:58:26;;;;;;;2.03;1.70;;;1.50;99.90;;;;;;4958217;28;20189;-95
2021/12/02 18:00:54;;;;;;;1.60;1.50;;;1.40;99.90;;;;;;4956286;29;20219;-93
2021/12/02 18:03:22;;;;;;;1.70;1.60;;;1.30;99.90;;;;;;4957514;28;20233;-94
2021/12/02 18:05:49;;;;;;;1.52;1.40;;;1.30;99.90;;;;;;4957295;28;20193;-95
2021/12/02 18:08:18;;;;;;;3.97;1.60;;;1.30;99.90;;;;;;4960571;28;20193;-96
2021/12/02 18:10:45;;;;;;;4.13;1.90;;;1.30;99.90;;;;;;4961780;28;20204;-95
2021/12/02 18:13:13;;;;;;;1.95;1.63;;;1.30;99.90;;;;;;4961525;28;20276;-93
2021/12/02 18:15:40;;;;;;;2.38;1.95;;;1.30;99.90;;;;;;4961770;28;20221;-94
2021/12/02 18:18:10;;;;;;;2.30;1.70;;;1.30;99.90;;;;;;4961912;28;20188;-93
2021/12/02 18:20:38;;;;;;;2.20;2.00;;;1.30;99.90;;;;;;4962139;28;20189;-93
2021/12/02 18:28:24;;;;;;;3.28;2.63;;;1.40;99.90;;;;;;5420062;23;20255;-92
2021/12/02 18:30:52;;;;;;;4.90;2.83;;;1.40;99.90;;;;;;4973411;28;20821;-92
2021/12/02 18:33:26;;;;;;;4.35;3.15;;;1.40;99.90;;;;;;4954502;29;20232;-90
2021/12/02 18:36:04;;;;;;;3.03;2.60;;;1.40;99.90;;;;;;4957197;29;20248;-92
2021/12/02 18:38:32;;;;;;;4.45;3.35;;;1.40;99.90;;;;;;4957236;29;20313;-92
2021/12/02 18:41:00;;;;;;;3.30;2.83;;;1.40;99.90;;;;;;4939690;29;20206;-93
2021/12/02 18:46:11;;;;;;;5.63;3.25;;;1.50;99.90;;;;;;4940810;29;20190;-92
2021/12/02 18:48:38;;;;;;;3.35;3.00;;;1.50;99.90;;;;;;4938521;29;20202;-92
2021/12/02 18:51:05;;;;;;;3.40;2.80;;;1.50;99.90;;;;;;4937189;29;20233;-92
2021/12/02 18:53:33;;;;;;;4.28;2.70;;;1.50;99.90;;;;;;4937001;29;20221;-93
2021/12/02 18:56:00;;;;;;;5.82;3.15;;;1.50;99.90;;;;;;4938022;29;20242;-93
2021/12/02 18:58:30;;;;;;;3.20;2.90;;;1.50;99.90;;;;;;4942287;29;20182;-94
2021/12/02 19:01:26;;;;;;;3.20;2.90;;;1.50;99.90;;;;;;4943369;29;20208;-93
2021/12/02 19:03:58;;;;;;;22.73;12.07;;;1.50;99.90;;;;;;4938485;29;20229;-93
2021/12/02 19:09:41;;;;;;;4.13;3.17;;;1.60;99.90;;;;;;4937373;29;20210;-91
2021/12/02 19:26:50;;;;;;;3.90;3.50;;;1.40;99.90;;;;;;4941387;29;20218;-94
2021/12/02 19:39:56;;;;;;;5.72;3.97;;;1.40;99.90;;;;;;5602349;23;20244;-93
2021/12/02 19:42:26;;;;;;;4.65;3.20;;;1.40;99.90;;;;;;4976527;29;20197;-93
2021/12/02 19:44:57;;;;;;;5.85;3.78;;;1.50;99.90;;;;;;4977787;29;20249;-93
2021/12/02 19:47:25;;;;;;;5.35;3.55;;;1.50;99.90;;;;;;4977990;28;20201;-94
2021/12/02 19:49:55;;;;;;;5.63;3.30;;;1.50;99.90;;;;;;4964597;29;20295;-92
2021/12/02 19:55:13;;;;;;;5.47;3.42;;;1.50;99.90;;;;;;5235960;23;20218;-91